Impacts METAR Board INFO
IDs:

KCVG - Cincinnati Intl, KY, US

Updated at: 0022 UTC 23 Jan 2018
Potential Impact None Slight Moderate High
Time22/12Z 22/13Z 22/14Z 22/15Z 22/16Z 22/17Z 22/18Z 22/19Z 22/20Z 22/21Z 22/22Z 22/23Z 23/00Z
VIS10 10 10 10 10 10 5 7 4 10 10 10 10
CIG230 230 220 110 90 85 75 70 80 33 29 27 31
CoverOVCOVCOVCOVCOVCOVCOVCOVCOVCOVCOVCOVCOVC
FltCatVFRVFRVFRVFRVFRVFRMVFRVFRMVFRVFRMVFRMVFRVFR
WX---------RA---RA-RA-RA BR--------
WDir180170180180230200190180160150180180170
WSpd11 15 13 14 8 10 10 14 13 15 14 15 17
WGst-- -- 22 -- -- -- -- -- -- -- 25 28 --
Raw hourly METARs
KCVG 221152Z 18011KT 10SM FEW130 OVC230 11/07 A2988 RMK AO2 SLP114 T01110072 10122 20100 56022 $
KCVG 221252Z 17015KT 10SM SCT160 OVC230 12/07 A2985 RMK AO2 SLP106 T01170072
KCVG 221352Z 18013G22KT 10SM SCT110 OVC220 13/07 A2987 RMK AO2 SLP110 T01280072
KCVG 221452Z 18014KT 10SM BKN110 OVC250 14/08 A2986 RMK AO2 SLP109 T01390078 56005
KCVG 221552Z 23008KT 10SM -RA OVC090 14/07 A2989 RMK AO2 RAB36 SLP120 P0000 T01440072
KCVG 221652Z 20010KT 10SM SCT070 OVC085 14/08 A2988 RMK AO2 RAE35 SLP115 SHRA VC W-NW P0000 T01390078
KCVG 221752Z 19010KT 5SM -RA FEW050 BKN075 OVC085 12/09 A2982 RMK AO2 RAB05 SLP095 P0004 60004 T01220094 10144 20111 58013
KCVG 221852Z COR 18014KT 7SM -RA FEW055 BKN070 OVC080 12/10 A2975 RMK AO2 SLP073 P0006 T01170100
KCVG 222000Z 16013KT 4SM -RA BR SCT043 OVC080 12/10 A2971 RMK AO2 P0000 T01170100
KCVG 222052Z 15015KT 10SM BKN033 OVC048 12/10 A2968 RMK AO2 RAE30 SLP048 P0002 60009 T01220100 56046
KCVG 222152Z 18014G25KT 10SM OVC029 14/10 A2965 RMK AO2 PK WND 17028/2141 SLP037 T01390100
KCVG 222252Z 18015G28KT 10SM OVC027 14/11 A2964 RMK AO2 PK WND 17028/2231 SLP031 T01390106
KCVG 222352Z 17017KT 10SM SCT027 OVC031 14/11 A2962 RMK AO2 PK WND 18029/2309 SLP028 SCT V BKN 60009 T01390111 10139 20117 58010